Detall de PIREP

Printer-friendly versionPDF version

[2014/10/09 09:36:00]
Flight IATA:CT3301
Pilot Number:042
Company ICAO:CAT
Aircraft Type:F100/A
PAX:23
Aircraft Registration:PFJ
Departing Airport: DAAG
Destination Airport: LEZG
Alternate Airport:LEMD
Online: VATSIM
Route:SADAF UN861 ADX UN863 ARBEK UN725 LOBAR
Flight Level:F320
No Slew and time accel
No pause
Crash detect
Detect pilot in Cockpit between each 30 and 45 minutes
09:36 Zero fuel Weight: 81825 Lbs, Fuel Weight: 22689 Lbs
09:36 VATSIM:DAAG 090900Z VRB01KT 8000 NSC 24/20 Q1016
09:36 VATSIM:LEZG 090900Z 08003KT 9999 FEW040 19/16 Q1012
09:42 Parking Brakes off
09:50 Take-off
09:50 Take off Weight: 103816 Lbs
09:50 Wind: 191º @ 002 Knots Heading: 092º
09:50 POS N36º 41´ 28´´ E003º 11´ 49´´
09:50 Gear Up: 183 Knots
09:50 Flaps:2 at 183 Knots
09:50 Flaps:1 at 199 Knots
09:51 Flaps:0 at 214 Knots
10:05 Wind:224º@020 Knots Heading: 325º Ground Speed: 384 Knots Altitude 25816 ft
10:10 TOC
10:10 Fuel Weight: 19451 Lb
10:20 Wind:220º@024 Knots Heading: 040º Ground Speed: 476 Knots Altitude 31909 ft
10:35 Wind:217º@009 Knots Heading: 338º Ground Speed: 456 Knots Altitude 31961 ft
10:42 TOD
10:42 Fuel Weight: 16915 Lb
10:50 Wind:213º@011 Knots Heading: 244º Ground Speed: 270 Knots Altitude 16555 ft
10:56 Flaps:1 at 277 Knots
11:00 Gear Down: 172 Knots
11:00 Flaps:2 at 172 Knots
11:00 Flaps:3 at 170 Knots
11:03 TouchDown:Rate -93 ft/min Speed: 146 Knots
11:03 VATSIM:LEZG 091030Z VRB02KT 9999 -RA FEW030 SCT050 21/16 Q1012
11:03 Land
11:03 Wind:201º@004 Knots
11:03 Heading: 300º
11:03 Flight Duration: 01:13
11:03 Landing Weight: 97893 Lbs
11:03 POS N41º 39´ 48´´ W001º 01´ 36´´
11:04 Parking brakes on
11:04 Block to Block Duration: 01:22
11:04 Final Fuel: 16040 Lbls
11:04 Spent Fuel: 6649 Lbls
11:04 Flight Length: 463 NM
11:04 TOD Land Length: 100 NM

Exportar CSV

Powered by Drupal - Modified by Danger4k